Time,TemperatureF,DewpointF,PressureIn,WindDirection,WindDirectionDegrees,WindSpeedMPH,WindSpeedGustMPH,Humidity,HourlyPrecipIn,Conditions,Clouds,dailyrainin,SolarRadiationWatts/m^2,SoftwareType,DateUTC
2013-01-03 00:12:00,33.0,19.0,-100.00,West,263,4.0,7.0,57,-99.99,,,0.00,0.000000,,2013-01-03 08:12:00,
2013-01-03 00:22:00,33.0,19.0,-100.00,West,263,4.0,7.0,57,-99.99,,,0.00,0.000000,,2013-01-03 08:22:00,
2013-01-03 01:12:00,31.0,19.0,-100.00,NNW,329,2.0,6.0,61,-99.99,,,0.00,0.000000,,2013-01-03 09:12:00,
2013-01-03 01:22:00,31.0,19.0,-100.00,NNW,329,2.0,6.0,61,-99.99,,,0.00,0.000000,,2013-01-03 09:22:00,
2013-01-03 02:12:00,34.0,19.0,-100.00,NNW,346,4.0,7.0,54,-99.99,,,-99.99,0.000000,,2013-01-03 10:12:00,
2013-01-03 02:22:00,34.0,19.0,-100.00,NNW,346,4.0,7.0,54,-99.99,,,-99.99,0.000000,,2013-01-03 10:22:00,
2013-01-03 03:12:00,34.0,20.0,-100.00,North,353,5.0,8.0,56,-99.99,,,0.00,0.000000,,2013-01-03 11:12:00,
2013-01-03 03:22:00,34.0,20.0,-100.00,North,353,5.0,8.0,56,-99.99,,,0.00,0.000000,,2013-01-03 11:22:00,
2013-01-03 04:12:00,35.0,19.0,-100.00,NNE,13,5.0,9.0,52,-99.99,,,0.00,0.000000,,2013-01-03 12:12:00,
2013-01-03 04:22:00,35.0,19.0,-100.00,NNE,13,5.0,9.0,52,-99.99,,,0.00,0.000000,,2013-01-03 12:22:00,
2013-01-03 05:12:00,33.0,20.0,-100.00,North,11,5.0,7.0,58,-99.99,,,0.00,0.000000,,2013-01-03 13:12:00,
2013-01-03 06:12:00,31.0,20.0,-100.00,NNW,343,4.0,7.0,62,-99.99,,,0.00,0.000000,,2013-01-03 14:12:00,
2013-01-03 07:12:00,34.0,19.0,-100.00,North,2,5.0,7.0,54,-99.99,,,0.00,1.000000,,2013-01-03 15:12:00,
2013-01-03 08:12:00,38.0,20.0,-100.00,North,2,3.0,6.0,48,-99.99,,,0.00,115.000000,,2013-01-03 16:12:00,
2013-01-03 09:12:00,47.0,22.0,-100.00,NNW,331,4.0,7.0,37,-99.99,,,-99.99,333.000000,,2013-01-03 17:12:00,
2013-01-03 09:22:00,47.0,22.0,-100.00,NNW,331,4.0,7.0,37,-99.99,,,-99.99,333.000000,,2013-01-03 17:22:00,
2013-01-03 09:33:00,47.0,22.0,-100.00,NNW,331,4.0,7.0,37,-99.99,,,-99.99,333.000000,,2013-01-03 17:33:00,
2013-01-03 09:42:00,47.0,22.0,-100.00,NNW,331,4.0,7.0,37,-99.99,,,-99.99,333.000000,,2013-01-03 17:42:00,
2013-01-03 10:13:00,54.0,19.0,-100.00,North,4,10.0,15.0,25,-99.99,,,0.00,519.000000,,2013-01-03 18:13:00,
2013-01-03 10:22:00,54.0,19.0,-100.00,North,4,10.0,15.0,25,-99.99,,,0.00,519.000000,,2013-01-03 18:22:00,
2013-01-03 10:33:00,54.0,19.0,-100.00,North,4,10.0,15.0,25,-99.99,,,0.00,519.000000,,2013-01-03 18:33:00,
2013-01-03 10:42:00,54.0,19.0,-100.00,North,4,10.0,15.0,25,-99.99,,,0.00,519.000000,,2013-01-03 18:42:00,
2013-01-03 11:12:00,58.0,17.0,-100.00,North,357,10.0,17.0,20,0.00,,,0.00,646.000000,,2013-01-03 19:12:00,
2013-01-03 12:12:00,60.0,16.0,-100.00,NNW,348,10.0,20.0,18,0.00,,,-99.99,706.000000,,2013-01-03 20:12:00,
2013-01-03 12:22:00,60.0,16.0,-100.00,NNW,348,10.0,20.0,18,0.00,,,-99.99,706.000000,,2013-01-03 20:22:00,
2013-01-03 12:33:00,60.0,16.0,-100.00,NNW,348,10.0,20.0,18,0.00,,,-99.99,706.000000,,2013-01-03 20:33:00,
2013-01-03 12:42:00,60.0,16.0,-100.00,NNW,348,10.0,20.0,18,0.00,,,-99.99,706.000000,,2013-01-03 20:42:00,
2013-01-03 13:12:00,62.0,12.0,-100.00,North,357,11.0,19.0,14,0.00,,,0.00,693.000000,,2013-01-03 21:12:00,
2013-01-03 13:22:00,62.0,12.0,-100.00,North,357,11.0,19.0,14,0.00,,,0.00,693.000000,,2013-01-03 21:22:00,
2013-01-03 13:35:00,62.0,12.0,-100.00,North,357,11.0,19.0,14,0.00,,,0.00,693.000000,,2013-01-03 21:35:00,
2013-01-03 13:46:00,62.0,12.0,-100.00,North,357,11.0,19.0,14,0.00,,,0.00,693.000000,,2013-01-03 21:46:00,
2013-01-03 14:12:00,63.0,8.0,-100.00,North,2,12.0,19.0,11,0.00,,,0.00,608.000000,,2013-01-03 22:12:00,
2013-01-03 14:22:00,63.0,8.0,-100.00,North,2,12.0,19.0,11,0.00,,,0.00,608.000000,,2013-01-03 22:22:00,
2013-01-03 14:32:00,63.0,8.0,-100.00,North,2,12.0,19.0,11,0.00,,,0.00,608.000000,,2013-01-03 22:32:00,
2013-01-03 14:42:00,63.0,8.0,-100.00,North,2,12.0,19.0,11,0.00,,,0.00,608.000000,,2013-01-03 22:42:00,
2013-01-03 15:12:00,63.0,10.0,-100.00,North,5,12.0,20.0,12,0.00,,,0.00,433.000000,,2013-01-03 23:12:00,
2013-01-03 15:22:00,63.0,10.0,-100.00,North,5,12.0,20.0,12,0.00,,,0.00,433.000000,,2013-01-03 23:22:00,
2013-01-03 15:32:00,63.0,10.0,-100.00,North,5,12.0,20.0,12,0.00,,,0.00,433.000000,,2013-01-03 23:32:00,
2013-01-03 15:42:00,63.0,10.0,-100.00,North,5,12.0,20.0,12,0.00,,,0.00,433.000000,,2013-01-03 23:42:00,
2013-01-03 16:12:00,62.0,9.0,-100.00,North,7,10.0,17.0,12,0.00,,,-99.99,248.000000,,2013-01-04 00:12:00,
2013-01-03 16:22:00,62.0,9.0,-100.00,North,7,10.0,17.0,12,0.00,,,-99.99,248.000000,,2013-01-04 00:22:00,
2013-01-03 16:32:00,62.0,9.0,-100.00,North,7,10.0,17.0,12,0.00,,,-99.99,248.000000,,2013-01-04 00:32:00,
2013-01-03 16:42:00,62.0,9.0,-100.00,North,7,10.0,17.0,12,0.00,,,-99.99,248.000000,,2013-01-04 00:42:00,
2013-01-03 17:12:00,56.0,16.0,-100.00,North,2,4.0,13.0,20,0.00,,,0.00,63.000000,,2013-01-04 01:12:00,
2013-01-03 17:22:00,56.0,16.0,-100.00,North,2,4.0,13.0,20,0.00,,,0.00,63.000000,,2013-01-04 01:22:00,
2013-01-03 17:32:00,56.0,16.0,-100.00,North,2,4.0,13.0,20,0.00,,,0.00,63.000000,,2013-01-04 01:32:00,
2013-01-03 17:42:00,56.0,16.0,-100.00,North,2,4.0,13.0,20,0.00,,,0.00,63.000000,,2013-01-04 01:42:00,
2013-01-03 18:12:00,49.0,14.0,-100.00,North,353,5.0,7.0,24,0.00,,,0.00,1.000000,,2013-01-04 02:12:00,
2013-01-03 18:22:00,49.0,14.0,-100.00,North,353,5.0,7.0,24,0.00,,,0.00,1.000000,,2013-01-04 02:22:00,
2013-01-03 18:42:00,49.0,14.0,-100.00,North,353,5.0,7.0,24,0.00,,,0.00,1.000000,,2013-01-04 02:42:00,
2013-01-03 19:12:00,45.0,17.0,-100.00,NNW,332,4.0,6.0,32,0.00,,,0.00,0.000000,,2013-01-04 03:12:00,
2013-01-03 19:22:00,45.0,17.0,-100.00,NNW,332,4.0,6.0,32,0.00,,,0.00,0.000000,,2013-01-04 03:22:00,
2013-01-03 20:12:00,37.0,21.0,-100.00,NNE,13,1.0,6.0,52,-99.99,,,0.00,0.000000,,2013-01-04 04:12:00,
2013-01-03 20:22:00,37.0,21.0,-100.00,NNE,13,1.0,6.0,52,-99.99,,,0.00,0.000000,,2013-01-04 04:22:00,
2013-01-03 21:12:00,34.0,13.0,-100.00,North,353,5.0,6.0,41,-99.99,,,0.00,0.000000,,2013-01-04 05:12:00,
2013-01-03 21:22:00,34.0,13.0,-100.00,North,353,5.0,6.0,41,-99.99,,,0.00,0.000000,,2013-01-04 05:22:00,
2013-01-03 22:12:00,35.0,14.0,-100.00,NW,311,5.0,7.0,41,-99.99,,,0.00,0.000000,,2013-01-04 06:12:00,
2013-01-03 22:22:00,35.0,14.0,-100.00,NW,311,5.0,7.0,41,-99.99,,,0.00,0.000000,,2013-01-04 06:22:00,
2013-01-03 23:12:00,31.0,15.0,-100.00,ENE,64,4.0,5.0,51,-99.99,,,0.00,0.000000,,2013-01-04 07:12:00,
2013-01-03 23:22:00,31.0,15.0,-100.00,ENE,64,4.0,5.0,51,-99.99,,,0.00,0.000000,,2013-01-04 07:22:00,